Terminal Aerodrome Forecast
Issued by NWS

Home | Current Version | Previous Version | Text Only | Print | Product List | Glossary On
Versions: 1 2 3 4 5 6 7 8 9 10 11 12 13
927
FTUS42 TJSJ 211139
TAFIST
TAF
TIST 211139Z 2112/2212 09006KT P6SM FEW025 FEW050
     FM211400 12011KT P6SM SCT030
     FM212300 09006KT P6SM FEW025 SCT050=

USA.gov is the U.S. government's official web portal to all federal, state and local government web resources and services.